Time;durP1;ratioP1;P1;durP2;ratioP2;P2;SDS_P1;SDS_P2;PMS_P1;PMS_P2;Temp;Humidity;BMP_temperature;BMP_pressure;BME280_temperature;BME280_humidity;BME280_pressure;Samples;Min_cycle;Max_cycle;Signal;HPM_P1;HPM_P2
2021/07/21 00:00:46;;;;;;;2.83;2.63;;;26.80;75.50;;;;;;5025345;28;20451;-27
2021/07/21 00:03:17;;;;;;;3.10;2.90;;;26.80;72.30;;;;;;5024806;28;20475;-27
2021/07/21 00:05:48;;;;;;;3.10;2.90;;;26.70;72.10;;;;;;5021295;28;20593;-27
2021/07/21 00:08:19;;;;;;;3.60;3.33;;;26.70;70.10;;;;;;5009878;28;20505;-27
2021/07/21 00:13:26;;;;;;;3.57;2.80;;;26.60;72.00;;;;;;5018110;28;20612;-27
2021/07/21 00:13:40;;;;;;;6.20;3.03;;;26.70;71.80;;;;;;5022228;28;20498;-26
2021/07/21 00:16:16;;;;;;;3.00;2.43;;;26.80;72.00;;;;;;5024412;28;20548;-27
2021/07/21 00:18:55;;;;;;;2.60;2.40;;;26.80;69.80;;;;;;5005674;28;20459;-26
2021/07/21 00:21:28;;;;;;;4.60;3.30;;;26.70;69.40;;;;;;5005984;28;20599;-27
2021/07/21 00:23:59;;;;;;;3.80;3.50;;;26.60;70.30;;;;;;5005221;28;20445;-26
2021/07/21 00:26:30;;;;;;;2.40;2.30;;;26.40;69.70;;;;;;5005133;28;20519;-26
2021/07/21 00:29:01;;;;;;;2.90;2.70;;;26.40;69.60;;;;;;5005971;28;20533;-26
2021/07/21 00:31:34;;;;;;;3.33;3.03;;;26.30;70.60;;;;;;5006467;28;20502;-26
2021/07/21 00:34:05;;;;;;;3.83;3.53;;;26.20;70.80;;;;;;5018631;28;20837;-26
2021/07/21 00:36:36;;;;;;;2.90;2.70;;;26.10;69.10;;;;;;5023098;28;20521;-27
2021/07/21 00:39:06;;;;;;;3.20;2.90;;;26.10;70.10;;;;;;5019456;28;20443;-26
2021/07/21 00:41:38;;;;;;;3.03;2.83;;;25.90;69.50;;;;;;5005149;28;20479;-28
2021/07/21 00:44:09;;;;;;;3.33;3.03;;;25.90;70.60;;;;;;5020831;28;20477;-26
2021/07/21 00:46:42;;;;;;;2.73;2.53;;;25.90;70.90;;;;;;5008568;28;20434;-27
2021/07/21 00:49:13;;;;;;;3.13;2.93;;;25.90;69.20;;;;;;5022917;28;20486;-27
2021/07/21 00:51:44;;;;;;;3.30;3.00;;;25.90;69.30;;;;;;5020777;28;20462;-27
2021/07/21 00:54:15;;;;;;;3.07;2.77;;;25.90;68.60;;;;;;5004995;28;20439;-28
2021/07/21 00:56:47;;;;;;;4.80;3.57;;;25.80;67.90;;;;;;5007575;28;20501;-26
2021/07/21 00:59:18;;;;;;;3.07;2.87;;;25.80;67.60;;;;;;5022517;28;20949;-26
2021/07/21 01:01:51;;;;;;;3.20;3.00;;;25.60;66.30;;;;;;5014959;28;20447;-27
2021/07/21 01:04:22;;;;;;;3.30;3.10;;;25.50;67.00;;;;;;5021419;28;20542;-26
2021/07/21 01:06:55;;;;;;;3.10;2.87;;;25.40;68.30;;;;;;5023013;28;20454;-26
2021/07/21 01:09:26;;;;;;;3.90;3.60;;;25.40;67.90;;;;;;5024149;28;20447;-26
2021/07/21 01:12:03;;;;;;;3.00;2.67;;;25.40;68.80;;;;;;5012356;28;20538;-26
2021/07/21 01:14:43;;;;;;;5.43;4.93;;;25.30;69.40;;;;;;5019330;28;20458;-26
2021/07/21 01:17:20;;;;;;;5.13;4.73;;;25.30;69.30;;;;;;5019188;28;20807;-26
2021/07/21 01:20:13;;;;;;;3.47;3.10;;;25.40;67.90;;;;;;5011383;28;20455;-27
2021/07/21 01:22:48;;;;;;;3.53;3.23;;;25.30;66.80;;;;;;5003667;28;20525;-27
2021/07/21 01:25:20;;;;;;;3.60;3.30;;;25.20;66.60;;;;;;5005206;28;20454;-27
2021/07/21 01:27:55;;;;;;;3.10;2.80;;;25.20;66.30;;;;;;5004461;28;20525;-27
2021/07/21 01:30:29;;;;;;;7.10;6.50;;;25.20;66.20;;;;;;5011205;28;20435;-26
2021/07/21 01:33:02;;;;;;;7.43;6.80;;;25.00;67.00;;;;;;5017093;28;20450;-26
2021/07/21 01:35:37;;;;;;;8.20;7.40;;;24.90;67.60;;;;;;5018546;28;20473;-26
2021/07/21 01:38:11;;;;;;;6.53;5.93;;;24.90;69.00;;;;;;5022271;28;20493;-27
2021/07/21 01:40:52;;;;;;;18.97;17.37;;;24.80;67.40;;;;;;5023289;28;20466;-27
2021/07/21 01:43:27;;;;;;;9.57;8.77;;;24.80;66.30;;;;;;5013624;28;20485;-27
2021/07/21 01:46:00;;;;;;;5.80;5.30;;;24.80;62.20;;;;;;5021896;28;20486;-28
2021/07/21 01:48:34;;;;;;;3.23;2.93;;;24.80;63.60;;;;;;5016628;28;20450;-27
2021/07/21 01:51:08;;;;;;;15.63;14.63;;;24.70;65.20;;;;;;5021936;28;21442;-27
2021/07/21 01:53:40;;;;;;;10.70;9.70;;;24.60;63.10;;;;;;5022296;28;20504;-27
2021/07/21 01:56:12;;;;;;;6.70;6.20;;;24.50;63.10;;;;;;5005171;28;20433;-27
2021/07/21 01:58:46;;;;;;;3.90;3.60;;;24.40;63.80;;;;;;5011181;28;20455;-27
2021/07/21 02:01:17;;;;;;;3.60;3.30;;;24.40;64.20;;;;;;5012792;28;20417;-27
2021/07/21 02:03:50;;;;;;;4.80;4.40;;;24.30;63.10;;;;;;5022094;28;20518;-27
2021/07/21 02:06:21;;;;;;;5.80;4.90;;;24.20;62.00;;;;;;5025971;28;20450;-27
2021/07/21 02:08:55;;;;;;;4.90;3.43;;;24.20;61.60;;;;;;5019698;28;20465;-36
2021/07/21 02:11:27;;;;;;;2.97;2.77;;;24.10;64.40;;;;;;5020728;28;20424;-27
2021/07/21 02:14:02;;;;;;;3.00;2.80;;;24.10;64.10;;;;;;5017755;28;20920;-27
2021/07/21 02:16:36;;;;;;;5.70;2.50;;;24.00;64.60;;;;;;5005147;28;20469;-28
2021/07/21 02:19:08;;;;;;;2.57;2.37;;;24.00;66.40;;;;;;5005843;28;20478;-27
2021/07/21 02:21:41;;;;;;;2.80;2.60;;;23.80;65.90;;;;;;5003271;28;20455;-28
2021/07/21 02:24:13;;;;;;;2.93;2.60;;;23.80;67.40;;;;;;5004017;28;20478;-28
2021/07/21 02:26:44;;;;;;;2.73;2.53;;;23.80;71.20;;;;;;5010088;28;20471;-27
2021/07/21 02:29:17;;;;;;;3.07;2.87;;;23.80;73.60;;;;;;5008468;28;20462;-27
2021/07/21 02:31:55;;;;;;;3.27;2.97;;;23.80;75.40;;;;;;5022155;28;20438;-27
2021/07/21 02:34:26;;;;;;;3.30;2.90;;;23.70;74.90;;;;;;5007038;28;20463;-27
2021/07/21 02:36:59;;;;;;;3.03;2.83;;;23.60;74.60;;;;;;5010207;28;20575;-26
2021/07/21 02:39:30;;;;;;;3.07;2.87;;;23.50;75.80;;;;;;5019039;28;20428;-27
2021/07/21 02:42:01;;;;;;;3.00;2.80;;;23.40;76.50;;;;;;5018716;28;20486;-27
2021/07/21 02:44:34;;;;;;;2.70;2.40;;;23.40;77.50;;;;;;5018601;28;20441;-27
2021/07/21 02:47:06;;;;;;;3.20;2.90;;;23.40;77.80;;;;;;5020404;28;20429;-27
2021/07/21 02:49:37;;;;;;;3.03;2.73;;;23.40;77.30;;;;;;5021616;28;20435;-27
2021/07/21 02:52:13;;;;;;;3.10;2.57;;;23.30;78.40;;;;;;5022992;28;20471;-27
2021/07/21 02:54:54;;;;;;;2.60;2.40;;;23.20;79.40;;;;;;5026775;28;20790;-27
2021/07/21 02:57:29;;;;;;;3.63;2.90;;;23.20;78.80;;;;;;5024262;28;20503;-27
2021/07/21 03:00:10;;;;;;;2.70;2.50;;;23.10;80.00;;;;;;5025358;28;20454;-27
2021/07/21 03:02:42;;;;;;;3.03;2.70;;;23.00;80.50;;;;;;5026047;28;20478;-27
2021/07/21 03:05:15;;;;;;;3.07;2.87;;;23.00;81.40;;;;;;5016360;28;20430;-28
2021/07/21 03:07:50;;;;;;;2.87;2.67;;;22.90;82.20;;;;;;5022619;28;20442;-27
2021/07/21 03:10:21;;;;;;;3.77;3.47;;;22.80;82.90;;;;;;5019389;28;20425;-26
2021/07/21 03:12:57;;;;;;;3.80;2.63;;;22.80;83.20;;;;;;5006499;28;20429;-26
2021/07/21 03:15:33;;;;;;;3.97;3.40;;;22.80;83.40;;;;;;5019842;28;20460;-27
2021/07/21 03:18:06;;;;;;;3.33;2.53;;;22.80;83.50;;;;;;5030990;28;20458;-27
2021/07/21 03:20:37;;;;;;;2.57;2.37;;;22.70;84.20;;;;;;5008923;28;20463;-26
2021/07/21 03:23:09;;;;;;;3.40;2.70;;;22.70;84.50;;;;;;5020431;28;20415;-27
2021/07/21 03:25:41;;;;;;;2.20;2.10;;;22.60;85.30;;;;;;5012583;28;20542;-26
2021/07/21 03:28:12;;;;;;;2.40;2.20;;;22.50;85.70;;;;;;5021891;28;20463;-27
2021/07/21 03:30:45;;;;;;;2.47;2.27;;;22.50;84.70;;;;;;5017443;28;20428;-26
2021/07/21 03:33:16;;;;;;;3.63;2.53;;;22.30;85.00;;;;;;5023755;28;20447;-27
2021/07/21 03:35:49;;;;;;;2.60;2.40;;;22.20;85.90;;;;;;5011965;28;20446;-26
2021/07/21 03:38:24;;;;;;;2.30;2.20;;;22.00;85.90;;;;;;5037407;28;20536;-26
2021/07/21 03:40:58;;;;;;;4.87;2.30;;;21.90;86.60;;;;;;5015140;28;20493;-27
2021/07/21 03:43:31;;;;;;;3.63;2.53;;;21.90;86.80;;;;;;5016729;28;20456;-27
2021/07/21 03:46:04;;;;;;;2.73;2.53;;;21.80;87.10;;;;;;5015086;28;20461;-27
2021/07/21 03:48:36;;;;;;;2.73;2.53;;;21.80;87.40;;;;;;5014111;28;20489;-28
2021/07/21 03:51:07;;;;;;;2.30;2.10;;;21.60;87.70;;;;;;5016065;28;21199;-27
2021/07/21 03:53:38;;;;;;;3.10;2.40;;;21.50;88.00;;;;;;5025114;28;20540;-27
2021/07/21 03:56:10;;;;;;;5.07;2.47;;;21.50;88.50;;;;;;5015652;28;20425;-27
2021/07/21 03:58:41;;;;;;;2.53;2.33;;;21.30;89.00;;;;;;5008950;28;20484;-26
2021/07/21 04:01:14;;;;;;;2.60;2.40;;;21.20;89.30;;;;;;5022876;28;20464;-26
2021/07/21 04:03:45;;;;;;;2.70;2.40;;;21.10;91.00;;;;;;5020043;28;20504;-26
2021/07/21 04:06:18;;;;;;;4.63;2.60;;;20.90;91.80;;;;;;5018934;28;20462;-26
2021/07/21 04:08:50;;;;;;;2.40;2.30;;;20.80;91.80;;;;;;5022037;28;20523;-26
2021/07/21 04:11:21;;;;;;;2.50;2.30;;;20.70;92.30;;;;;;5021850;28;20443;-26
2021/07/21 04:13:52;;;;;;;2.40;1.80;;;20.60;92.50;;;;;;5010744;28;20454;-26
2021/07/21 04:16:25;;;;;;;3.30;2.20;;;20.60;92.20;;;;;;5015344;28;20470;-26
2021/07/21 04:18:57;;;;;;;3.13;2.23;;;20.60;92.30;;;;;;5021870;28;20535;-26
2021/07/21 04:21:29;;;;;;;2.67;2.47;;;20.50;92.40;;;;;;5018780;28;20503;-26
2021/07/21 04:24:04;;;;;;;2.67;1.80;;;20.40;93.10;;;;;;5015251;28;20429;-26
2021/07/21 04:26:35;;;;;;;2.27;2.07;;;20.30;93.30;;;;;;5021881;28;20547;-25
2021/07/21 04:29:06;;;;;;;4.77;2.30;;;20.30;93.20;;;;;;5004634;28;20480;-26
2021/07/21 04:31:39;;;;;;;2.30;2.20;;;20.20;93.40;;;;;;5015592;28;20527;-26
2021/07/21 04:34:12;;;;;;;2.70;2.40;;;20.20;93.50;;;;;;5005413;28;20535;-26
2021/07/21 04:36:43;;;;;;;4.00;2.63;;;20.10;94.10;;;;;;5008329;28;20474;-26
2021/07/21 04:39:18;;;;;;;2.70;2.50;;;20.10;94.00;;;;;;5022425;28;20485;-26
2021/07/21 04:41:51;;;;;;;2.47;2.27;;;20.00;93.90;;;;;;5014690;28;20506;-27
2021/07/21 04:44:22;;;;;;;2.37;2.23;;;20.10;93.90;;;;;;5017329;28;20513;-26
2021/07/21 04:46:56;;;;;;;2.87;2.50;;;20.00;94.40;;;;;;5028204;28;20458;-26
2021/07/21 04:49:28;;;;;;;3.10;2.27;;;19.90;94.50;;;;;;5023849;28;20436;-26
2021/07/21 04:52:03;;;;;;;2.60;2.40;;;19.80;94.80;;;;;;5011185;28;20486;-27
2021/07/21 04:54:38;;;;;;;2.30;2.10;;;19.80;95.20;;;;;;5018559;28;20443;-27
2021/07/21 04:57:10;;;;;;;2.30;2.20;;;19.60;95.80;;;;;;5022686;28;20450;-27
2021/07/21 04:59:44;;;;;;;3.13;1.97;;;19.60;96.00;;;;;;5022579;28;20548;-27
2021/07/21 05:02:18;;;;;;;2.40;1.93;;;19.50;96.10;;;;;;5023708;28;20952;-27
2021/07/21 05:04:50;;;;;;;2.53;2.33;;;19.50;96.30;;;;;;5023882;28;20454;-27
2021/07/21 05:07:21;;;;;;;3.23;1.90;;;19.40;96.30;;;;;;5019710;28;20451;-27
2021/07/21 05:09:51;;;;;;;2.90;2.17;;;19.40;96.40;;;;;;5006324;28;20422;-28
2021/07/21 05:12:22;;;;;;;2.70;2.07;;;19.30;96.90;;;;;;5017447;28;20557;-27
2021/07/21 05:14:53;;;;;;;2.90;2.30;;;19.20;97.30;;;;;;5022055;28;20458;-27
2021/07/21 05:17:26;;;;;;;4.17;2.10;;;19.10;97.30;;;;;;5019419;28;20458;-27
2021/07/21 05:19:57;;;;;;;2.13;2.03;;;19.00;97.60;;;;;;5017523;28;20521;-27
2021/07/21 05:22:28;;;;;;;4.10;2.17;;;18.90;97.90;;;;;;5022418;28;20429;-27
2021/07/21 05:24:59;;;;;;;2.33;1.93;;;18.80;98.00;;;;;;5023871;28;20956;-26
2021/07/21 05:27:30;;;;;;;2.00;1.90;;;18.80;98.40;;;;;;5023574;28;20442;-26
2021/07/21 05:30:01;;;;;;;2.20;2.07;;;18.70;99.10;;;;;;5017503;28;20455;-26
2021/07/21 05:32:33;;;;;;;2.10;1.90;;;18.60;99.10;;;;;;5018475;28;20457;-26
2021/07/21 05:35:04;;;;;;;2.50;2.30;;;18.50;99.40;;;;;;5009365;28;20455;-26
2021/07/21 05:37:36;;;;;;;2.33;2.00;;;18.50;99.70;;;;;;5022575;28;20446;-27
2021/07/21 05:40:10;;;;;;;2.93;2.30;;;18.40;99.90;;;;;;5014994;28;20487;-27
2021/07/21 05:42:41;;;;;;;2.70;2.00;;;18.30;99.90;;;;;;5020092;28;20495;-26
2021/07/21 05:45:13;;;;;;;2.17;1.80;;;18.20;99.90;;;;;;5010626;28;20470;-26
2021/07/21 05:47:45;;;;;;;2.47;2.27;;;18.20;99.90;;;;;;5022204;28;20433;-26
2021/07/21 05:50:16;;;;;;;2.90;2.50;;;18.10;99.90;;;;;;5022768;28;20485;-26
2021/07/21 05:52:47;;;;;;;2.50;2.30;;;18.10;99.90;;;;;;5022790;28;20446;-27
2021/07/21 05:55:18;;;;;;;2.47;2.27;;;18.00;99.90;;;;;;5023366;28;20442;-26
2021/07/21 05:57:49;;;;;;;3.90;3.43;;;17.90;99.90;;;;;;5020876;28;20454;-26
2021/07/21 06:00:20;;;;;;;3.17;2.87;;;17.90;99.90;;;;;;5017654;28;20553;-26
2021/07/21 06:02:53;;;;;;;2.23;2.00;;;17.90;99.90;;;;;;5012080;28;20446;-26
2021/07/21 06:05:24;;;;;;;2.37;2.17;;;17.80;99.90;;;;;;5023232;28;20525;-26
2021/07/21 06:07:55;;;;;;;2.43;2.23;;;17.80;99.90;;;;;;5021190;28;20447;-27
2021/07/21 06:10:26;;;;;;;2.27;2.07;;;17.70;99.90;;;;;;5016718;28;20450;-26
2021/07/21 06:12:57;;;;;;;3.10;2.60;;;17.80;99.90;;;;;;5018315;28;20468;-26
2021/07/21 06:15:29;;;;;;;2.50;2.30;;;17.70;99.90;;;;;;5019077;28;20481;-26
2021/07/21 06:18:02;;;;;;;2.60;2.20;;;17.60;99.90;;;;;;5006011;28;20455;-26
2021/07/21 06:20:34;;;;;;;2.70;2.23;;;17.50;99.90;;;;;;5003672;28;20480;-26
2021/07/21 06:23:05;;;;;;;4.13;2.17;;;17.50;99.90;;;;;;5022087;28;20426;-26
2021/07/21 06:25:36;;;;;;;2.77;2.30;;;17.50;99.90;;;;;;5013610;28;20498;-25
2021/07/21 06:28:07;;;;;;;2.33;2.13;;;17.50;99.90;;;;;;5016781;28;20454;-26
2021/07/21 06:30:38;;;;;;;2.40;2.20;;;17.50;99.90;;;;;;5022524;28;20899;-26
2021/07/21 06:33:11;;;;;;;2.33;2.10;;;17.50;99.90;;;;;;5005006;28;20502;-26
2021/07/21 06:35:42;;;;;;;2.83;2.50;;;17.50;99.90;;;;;;5012993;28;20486;-26
2021/07/21 06:38:13;;;;;;;2.67;2.47;;;17.40;99.90;;;;;;5003435;28;20470;-27
2021/07/21 06:40:45;;;;;;;3.23;2.60;;;17.40;99.90;;;;;;5020924;28;20519;-27
2021/07/21 06:43:16;;;;;;;3.07;1.90;;;17.30;99.90;;;;;;5014829;28;20455;-26
2021/07/21 06:45:47;;;;;;;3.20;2.30;;;17.20;99.90;;;;;;5016613;28;20921;-26
2021/07/21 06:48:20;;;;;;;2.47;2.30;;;17.10;99.90;;;;;;5009351;28;20509;-26
2021/07/21 06:50:51;;;;;;;2.93;2.60;;;17.10;99.90;;;;;;5020144;28;20468;-27
2021/07/21 06:53:22;;;;;;;2.33;2.00;;;17.00;99.90;;;;;;5006307;28;20856;-26
2021/07/21 06:55:53;;;;;;;1.70;1.60;;;16.90;99.90;;;;;;5012988;28;20455;-26
2021/07/21 06:58:24;;;;;;;2.53;2.27;;;16.90;99.90;;;;;;5005374;28;20489;-26
2021/07/21 07:00:55;;;;;;;2.37;2.27;;;16.90;99.90;;;;;;5022224;28;20551;-26
2021/07/21 07:03:28;;;;;;;3.13;2.40;;;16.70;99.90;;;;;;5014281;28;20585;-26
2021/07/21 07:06:00;;;;;;;2.20;2.00;;;16.70;99.90;;;;;;5017224;28;20486;-26
2021/07/21 07:08:31;;;;;;;2.57;2.10;;;16.70;99.90;;;;;;5013899;28;20486;-26
2021/07/21 07:11:03;;;;;;;3.27;2.20;;;16.70;99.90;;;;;;5020412;28;20446;-26
2021/07/21 07:13:34;;;;;;;3.57;1.93;;;16.60;99.90;;;;;;5020947;28;20520;-26
2021/07/21 07:16:06;;;;;;;2.20;2.00;;;16.60;99.90;;;;;;5015182;28;20454;-26
2021/07/21 07:18:40;;;;;;;2.80;2.20;;;16.60;99.90;;;;;;5012212;28;20930;-26
2021/07/21 07:21:11;;;;;;;2.90;2.17;;;16.50;99.90;;;;;;5002196;28;20498;-27
2021/07/21 07:23:42;;;;;;;2.83;2.13;;;16.50;99.90;;;;;;5011711;28;20532;-27
2021/07/21 07:26:13;;;;;;;1.93;1.73;;;16.50;99.90;;;;;;5020866;28;20632;-26
2021/07/21 07:28:44;;;;;;;1.80;1.70;;;16.50;99.90;;;;;;5012368;28;20517;-27
2021/07/21 07:31:15;;;;;;;1.70;1.47;;;16.40;99.90;;;;;;5015187;28;20514;-26
2021/07/21 07:33:47;;;;;;;1.53;1.43;;;16.30;99.90;;;;;;5024954;28;20446;-26
2021/07/21 07:36:18;;;;;;;5.03;2.20;;;16.40;99.90;;;;;;5024809;28;20476;-27
2021/07/21 07:38:49;;;;;;;2.07;1.57;;;16.30;99.90;;;;;;5024948;28;20434;-26
2021/07/21 07:41:22;;;;;;;1.60;1.50;;;16.20;99.90;;;;;;5018367;28;20497;-27
2021/07/21 07:43:53;;;;;;;3.17;2.20;;;16.20;99.90;;;;;;5024459;28;20501;-26
2021/07/21 07:46:27;;;;;;;4.40;1.80;;;16.20;99.90;;;;;;5019416;28;20490;-26
2021/07/21 07:49:04;;;;;;;3.30;1.80;;;16.20;99.90;;;;;;5006336;28;20442;-26
2021/07/21 07:51:36;;;;;;;2.67;2.03;;;16.20;99.90;;;;;;5012314;28;20454;-26
2021/07/21 07:54:07;;;;;;;1.80;1.70;;;16.10;99.90;;;;;;5025011;28;20501;-26
2021/07/21 07:56:38;;;;;;;2.73;2.50;;;16.00;99.90;;;;;;5023364;28;20451;-26
2021/07/21 07:59:09;;;;;;;1.77;1.60;;;16.00;99.90;;;;;;5024929;28;20595;-26
2021/07/21 08:01:40;;;;;;;1.70;1.60;;;15.90;99.90;;;;;;5023750;28;20585;-26
2021/07/21 08:04:13;;;;;;;2.70;1.60;;;15.90;99.90;;;;;;5024992;28;20484;-26
2021/07/21 08:06:44;;;;;;;3.40;1.80;;;15.90;99.90;;;;;;5024277;28;21586;-27
2021/07/21 08:09:15;;;;;;;1.73;1.63;;;15.90;99.90;;;;;;5025344;28;20480;-27
2021/07/21 08:11:52;;;;;;;2.50;1.47;;;15.90;99.90;;;;;;5023432;28;20470;-27
2021/07/21 08:14:23;;;;;;;1.43;1.30;;;15.80;99.90;;;;;;5023745;28;20445;-27
2021/07/21 08:16:56;;;;;;;1.37;1.30;;;15.70;99.90;;;;;;5013695;28;20529;-26
2021/07/21 08:19:28;;;;;;;1.17;1.17;;;15.70;99.90;;;;;;5016340;28;20485;-26
2021/07/21 08:21:59;;;;;;;1.70;1.50;;;15.70;99.90;;;;;;5014892;28;20446;-26
2021/07/21 08:24:30;;;;;;;1.57;1.47;;;15.70;99.90;;;;;;5024795;28;20485;-26
2021/07/21 08:27:01;;;;;;;1.47;1.37;;;15.70;99.90;;;;;;5024328;28;21903;-26
2021/07/21 08:29:40;;;;;;;1.33;1.00;;;15.60;99.90;;;;;;5024730;28;20478;-26
2021/07/21 08:32:12;;;;;;;1.83;1.10;;;15.60;99.90;;;;;;5021638;28;20481;-27
2021/07/21 08:34:45;;;;;;;1.47;1.37;;;15.50;99.90;;;;;;5009286;28;20482;-26
2021/07/21 08:37:16;;;;;;;1.40;1.23;;;15.50;99.90;;;;;;5017423;28;20485;-26
2021/07/21 08:39:46;;;;;;;1.40;1.30;;;15.50;99.90;;;;;;5022707;28;20451;-26
2021/07/21 08:42:18;;;;;;;1.37;1.27;;;15.40;99.90;;;;;;5015178;28;20825;-27
2021/07/21 08:44:49;;;;;;;1.07;1.00;;;15.50;99.90;;;;;;5009606;28;20446;-26
2021/07/21 08:47:20;;;;;;;1.23;1.13;;;15.50;99.90;;;;;;5023192;28;20474;-27
2021/07/21 08:49:53;;;;;;;1.53;1.37;;;15.40;99.90;;;;;;5001754;28;20482;-26
2021/07/21 08:52:25;;;;;;;2.70;1.23;;;15.40;99.90;;;;;;5022820;28;20450;-26
2021/07/21 08:54:58;;;;;;;1.87;1.27;;;15.40;99.90;;;;;;5023342;28;20934;-26
2021/07/21 08:57:31;;;;;;;1.40;1.30;;;15.40;99.90;;;;;;5021189;28;20477;-26
2021/07/21 09:00:02;;;;;;;1.30;1.20;;;15.30;99.90;;;;;;5014455;28;20454;-27
2021/07/21 09:02:34;;;;;;;1.77;1.67;;;15.30;99.90;;;;;;5015345;28;20487;-26
2021/07/21 09:05:08;;;;;;;1.67;1.30;;;15.20;99.90;;;;;;5015569;28;20446;-26
2021/07/21 09:07:39;;;;;;;1.40;1.30;;;15.20;99.90;;;;;;5007018;28;20497;-26
2021/07/21 09:10:12;;;;;;;1.33;1.13;;;15.20;99.90;;;;;;5011293;28;20473;-26
2021/07/21 09:12:43;;;;;;;1.50;1.40;;;15.20;99.90;;;;;;5020840;28;20485;-26
2021/07/21 09:15:18;;;;;;;2.20;1.37;;;15.10;99.90;;;;;;5011574;28;20489;-26
2021/07/21 09:18:05;;;;;;;1.60;1.50;;;15.00;99.90;;;;;;5004131;28;20447;-26
2021/07/21 09:20:40;;;;;;;1.27;1.17;;;15.10;99.90;;;;;;5012273;28;20594;-26
2021/07/21 09:23:11;;;;;;;1.90;1.30;;;15.00;99.90;;;;;;5012778;28;20450;-26
2021/07/21 09:25:44;;;;;;;1.53;1.43;;;15.00;99.90;;;;;;5023871;28;20550;-26
2021/07/21 09:28:16;;;;;;;1.37;1.30;;;15.00;99.90;;;;;;5021862;28;20458;-26
2021/07/21 09:30:49;;;;;;;2.23;1.40;;;15.00;99.90;;;;;;5020252;28;20475;-26
2021/07/21 09:33:20;;;;;;;2.20;1.57;;;15.00;99.90;;;;;;5006040;28;20495;-26
2021/07/21 09:35:55;;;;;;;1.30;1.20;;;14.90;99.90;;;;;;5015043;28;20454;-26
2021/07/21 09:38:27;;;;;;;2.07;1.40;;;14.80;99.90;;;;;;5023020;28;20511;-26
2021/07/21 09:41:01;;;;;;;1.53;1.43;;;14.80;99.90;;;;;;5022860;28;20611;-26
2021/07/21 09:43:34;;;;;;;1.33;1.23;;;14.70;99.90;;;;;;5020465;28;20446;-26
2021/07/21 09:46:06;;;;;;;1.87;1.77;;;14.70;99.90;;;;;;5015355;28;20462;-26
2021/07/21 09:48:38;;;;;;;1.27;1.17;;;14.70;99.90;;;;;;5003956;28;20490;-26
2021/07/21 09:51:12;;;;;;;1.20;1.17;;;14.70;99.90;;;;;;5007478;28;20442;-26
2021/07/21 09:53:46;;;;;;;2.83;1.57;;;14.70;99.90;;;;;;5022983;28;20554;-25
2021/07/21 09:56:28;;;;;;;1.73;1.20;;;14.70;99.90;;;;;;5022490;28;20450;-26
2021/07/21 09:59:20;;;;;;;1.33;1.10;;;14.60;99.90;;;;;;5020002;28;20461;-26
2021/07/21 10:01:52;;;;;;;2.37;1.67;;;14.60;99.90;;;;;;5018752;28;20509;-26
2021/07/21 10:04:33;;;;;;;1.30;1.20;;;14.60;99.90;;;;;;5009851;28;20529;-26
2021/07/21 10:07:19;;;;;;;1.27;1.17;;;14.60;99.90;;;;;;5020743;28;20993;-26
2021/07/21 10:09:51;;;;;;;3.50;1.60;;;14.60;99.90;;;;;;5004172;28;20451;-27
2021/07/21 10:12:22;;;;;;;1.40;1.30;;;14.50;99.90;;;;;;5007438;28;20458;-26
2021/07/21 10:14:57;;;;;;;2.10;1.30;;;14.50;99.90;;;;;;5013071;28;20514;-26
2021/07/21 10:17:28;;;;;;;1.70;1.60;;;14.50;99.90;;;;;;5006566;28;20918;-26
2021/07/21 10:19:59;;;;;;;1.83;1.70;;;14.50;99.90;;;;;;5014744;28;21059;-26
2021/07/21 10:22:32;;;;;;;1.70;1.60;;;14.40;99.90;;;;;;5017051;28;20957;-25
2021/07/21 10:25:03;;;;;;;2.30;1.33;;;14.40;99.90;;;;;;5020473;28;20450;-26
2021/07/21 10:27:34;;;;;;;2.37;1.47;;;14.30;99.90;;;;;;5022241;28;20466;-26
2021/07/21 10:30:06;;;;;;;1.90;1.53;;;14.30;99.90;;;;;;5023290;28;20473;-26
2021/07/21 10:32:38;;;;;;;1.97;1.77;;;14.20;99.90;;;;;;5021631;28;20481;-26
2021/07/21 10:35:11;;;;;;;4.03;1.30;;;14.10;99.90;;;;;;5007806;28;20796;-26
2021/07/21 10:37:44;;;;;;;1.57;1.40;;;14.10;99.90;;;;;;5019890;28;20545;-26
2021/07/21 10:40:18;;;;;;;1.80;1.50;;;14.10;99.90;;;;;;5018705;28;20473;-26
2021/07/21 10:42:52;;;;;;;2.17;1.43;;;14.00;99.90;;;;;;5011704;28;20577;-25
2021/07/21 10:45:25;;;;;;;1.80;1.43;;;13.90;99.90;;;;;;5019435;28;20427;-25
2021/07/21 10:48:02;;;;;;;2.50;1.53;;;14.00;99.90;;;;;;5016672;28;20594;-26
2021/07/21 10:50:41;;;;;;;2.83;1.60;;;14.10;99.90;;;;;;5011171;28;20449;-26
2021/07/21 10:59:23;;;;;;;2.33;1.47;;;14.00;99.90;;;;;;5020847;28;20513;-27
2021/07/21 11:01:55;;;;;;;1.77;1.30;;;14.00;99.90;;;;;;5022262;28;20509;-26
2021/07/21 11:04:43;;;;;;;1.80;1.70;;;14.00;99.90;;;;;;5010523;28;20927;-26
2021/07/21 11:07:16;;;;;;;1.40;1.30;;;13.90;99.90;;;;;;5017964;28;20517;-26
2021/07/21 11:09:51;;;;;;;3.17;1.40;;;13.90;99.90;;;;;;5020917;28;20446;-26
2021/07/21 11:12:34;;;;;;;1.33;1.13;;;13.80;99.90;;;;;;5025600;28;20468;-26
2021/07/21 11:15:05;;;;;;;1.50;1.40;;;13.80;99.90;;;;;;5025861;28;20489;-25
2021/07/21 11:17:36;;;;;;;1.50;1.40;;;13.70;99.90;;;;;;5009084;28;20454;-26
2021/07/21 11:20:12;;;;;;;2.13;1.43;;;13.70;99.90;;;;;;5011539;28;20458;-26
2021/07/21 11:22:43;;;;;;;2.07;1.30;;;13.60;99.90;;;;;;5013762;28;20486;-25
2021/07/21 11:25:19;;;;;;;1.57;1.47;;;13.60;99.90;;;;;;5025140;28;20504;-25
2021/07/21 11:27:53;;;;;;;1.57;1.27;;;13.50;99.90;;;;;;5024047;28;20481;-25
2021/07/21 11:30:41;;;;;;;1.97;1.73;;;13.50;99.90;;;;;;5012374;28;20446;-26
2021/07/21 11:33:47;;;;;;;1.67;1.57;;;13.40;99.90;;;;;;5025291;28;20450;-32
2021/07/21 11:36:57;;;;;;;3.90;2.00;;;13.40;99.90;;;;;;5006375;28;20501;-26
2021/07/21 11:39:50;;;;;;;1.70;1.53;;;13.40;99.90;;;;;;5014626;28;20458;-26
2021/07/21 11:42:38;;;;;;;5.20;1.40;;;13.30;99.90;;;;;;5018415;28;20533;-25
2021/07/21 11:45:12;;;;;;;3.03;2.10;;;13.30;99.90;;;;;;5017748;28;20489;-26
2021/07/21 11:47:45;;;;;;;1.43;1.33;;;13.30;99.90;;;;;;5014014;28;20455;-26
2021/07/21 11:50:18;;;;;;;2.10;1.70;;;13.20;99.90;;;;;;5013327;28;20478;-26
2021/07/21 11:52:53;;;;;;;1.57;1.47;;;13.20;99.90;;;;;;5023823;28;22334;-27
2021/07/21 11:55:25;;;;;;;2.80;1.50;;;13.20;99.90;;;;;;5025109;28;20449;-26
2021/07/21 11:57:58;;;;;;;1.70;1.60;;;13.30;99.90;;;;;;5016439;28;20454;-26
2021/07/21 12:00:29;;;;;;;1.90;1.80;;;13.30;99.90;;;;;;5017202;28;20450;-26
2021/07/21 12:03:03;;;;;;;1.77;1.63;;;13.20;99.90;;;;;;5021693;28;20622;-26
2021/07/21 12:05:35;;;;;;;1.60;1.50;;;13.30;99.90;;;;;;5023540;28;20450;-26
2021/07/21 12:08:24;;;;;;;1.70;1.60;;;13.20;99.90;;;;;;5025249;28;20485;-26
2021/07/21 12:10:55;;;;;;;1.77;1.67;;;13.20;99.90;;;;;;5021945;28;20470;-26
2021/07/21 12:13:28;;;;;;;1.70;1.60;;;13.10;99.90;;;;;;5024061;28;20458;-25
2021/07/21 12:16:03;;;;;;;2.47;1.80;;;13.10;99.90;;;;;;5012044;28;20493;-25
2021/07/21 12:18:34;;;;;;;1.80;1.70;;;13.10;99.90;;;;;;5023038;28;20511;-25
2021/07/21 12:21:09;;;;;;;1.97;1.60;;;13.10;99.90;;;;;;5018835;28;20454;-25
2021/07/21 12:23:40;;;;;;;2.67;2.20;;;13.10;99.90;;;;;;5024454;28;20496;-25
2021/07/21 12:26:11;;;;;;;3.90;1.67;;;13.00;99.90;;;;;;5024370;28;20477;-25
2021/07/21 12:28:43;;;;;;;1.90;1.80;;;13.00;99.90;;;;;;5023851;28;20930;-25
2021/07/21 12:31:14;;;;;;;5.20;1.70;;;12.90;99.90;;;;;;5024575;28;20470;-25
2021/07/21 12:33:45;;;;;;;2.00;1.90;;;12.80;99.90;;;;;;5013287;28;20537;-25
2021/07/21 12:36:16;;;;;;;1.67;1.57;;;12.80;99.90;;;;;;5010457;28;20455;-26
2021/07/21 12:38:47;;;;;;;2.23;2.03;;;12.80;99.90;;;;;;5024755;28;20450;-25
2021/07/21 12:41:25;;;;;;;2.03;1.80;;;12.90;99.90;;;;;;5023198;28;20508;-25
2021/07/21 12:43:57;;;;;;;2.63;2.13;;;12.80;99.90;;;;;;5024050;28;20540;-25
2021/07/21 12:46:28;;;;;;;2.30;1.70;;;12.90;99.90;;;;;;5013124;28;20490;-25
2021/07/21 12:48:59;;;;;;;2.00;1.83;;;12.80;99.90;;;;;;5024029;28;20476;-25
2021/07/21 12:51:30;;;;;;;2.50;2.17;;;12.80;99.90;;;;;;5011598;28;20810;-25
2021/07/21 12:54:02;;;;;;;2.07;1.97;;;12.80;99.90;;;;;;5009606;28;20462;-25
2021/07/21 12:56:33;;;;;;;1.80;1.60;;;12.80;99.90;;;;;;5023083;28;21006;-25
2021/07/21 12:59:13;;;;;;;4.57;1.70;;;12.80;99.90;;;;;;5018668;28;20459;-25
2021/07/21 13:01:44;;;;;;;2.20;1.60;;;12.80;99.90;;;;;;5012036;28;20542;-25
2021/07/21 13:04:15;;;;;;;2.03;1.80;;;12.80;99.90;;;;;;5017239;28;20501;-25
2021/07/21 13:06:46;;;;;;;2.03;1.80;;;12.80;99.90;;;;;;5023082;28;20485;-26
2021/07/21 13:09:19;;;;;;;2.13;1.97;;;12.80;99.90;;;;;;5008411;28;20447;-25
2021/07/21 13:11:50;;;;;;;3.83;2.33;;;12.80;99.90;;;;;;5022523;28;20474;-25
2021/07/21 13:14:23;;;;;;;2.40;2.03;;;12.80;99.90;;;;;;5023008;28;20512;-25
2021/07/21 13:16:54;;;;;;;4.23;2.00;;;12.80;99.90;;;;;;5016949;28;20482;-25
2021/07/21 13:19:32;;;;;;;1.90;1.80;;;12.80;99.90;;;;;;5008330;28;20478;-25
2021/07/21 13:22:03;;;;;;;2.03;1.83;;;12.80;99.90;;;;;;5011774;28;20517;-25